Etusivu
METAR-TAF:

METAR-TAF

Lentoasemat :

Røst, Norja

Leveyspiiri: 67-31N, Pituuspiiri: 012-06E, korkeus merenpinnasta: 4 m

Tämänhetkinen sää

Tämä raportti tehtiin 7 tuntia ja 25 minuuttia sitten, kello 20.20 UTC
Tuuli 16 kn pohjoisen/luoteesta
Lämpötila 0°C
Kosteus 86%
Ilmanpaine 994 hPa
Näkyvyys: 4000 m
Muutamia pilviä 500 ft:n korkeudessa
Hajanaisia pilviä 1000 ft:n korkeudessa, Cumulonimbus.
Hajonneita pilviä 1600 ft:n korkeudessa
sadekuuroja näköpiirissä

METAR: ENRS 242020Z 33016KT 9999 4000NW VCSH FEW005 SCT010CB BKN016 00/M02 Q0994

Aika: 04:45 (03:45 UTC)


TAF: puuttuu

Säähavainnot ja -ennusteet yli 4000 lentoasemalta (METAR- ja TAF-raportit).

Käytössä olevat sääasemat on merkitty karttaan keltaisilla ja punaisilla pisteillä.

Aseta hiiri pisteen päälle nähdäksesi sääaseman nimen.

Klikkaa sitten nähdäksesi säähavainnot ja -ennusteet.

Kartan vaihtaminen: klikkaa mustalla rastilla varustettuja vihreitä pisteitä, niin voit zoomata sisään; viivalla varustettua vihreää pistettä, niin voit zoomata ulos tai vihreitä nuolia, niin pääset viereisille kartoille.


METAR-TAF: